createdAt,value
2018-08-14T00:04:30.706Z,40.70
2018-08-14T00:06:58.525Z,40.70
2018-08-14T00:09:26.191Z,40.90
2018-08-14T00:24:12.214Z,41.20
2018-08-14T00:26:39.866Z,41.20
2018-08-14T00:29:07.530Z,41.50
2018-08-14T00:31:35.198Z,41.50
2018-08-14T00:34:02.825Z,41.60
2018-08-14T00:36:30.489Z,41.60
2018-08-14T00:43:53.446Z,41.70
2018-08-14T00:48:48.763Z,42.00
2018-08-14T00:51:16.394Z,42.20
2018-08-14T00:56:11.690Z,42.00
2018-08-14T00:58:39.325Z,42.10
2018-08-14T01:01:07.027Z,42.20
2018-08-14T01:06:02.277Z,42.30
2018-08-14T01:08:29.901Z,42.40
2018-08-14T01:10:57.546Z,42.10
2018-08-14T01:13:25.180Z,42.50
2018-08-14T01:18:20.442Z,42.70
2018-08-14T01:20:51.114Z,42.70
2018-08-14T01:23:18.915Z,42.70
2018-08-14T01:28:14.277Z,42.70
2018-08-14T01:33:09.578Z,42.70
2018-08-14T01:35:37.185Z,42.80
2018-08-14T01:40:32.466Z,43.10
2018-08-14T01:43:00.096Z,43.00
2018-08-14T01:45:27.746Z,42.90
2018-08-14T01:47:55.377Z,43.10
2018-08-14T01:52:52.498Z,43.10
2018-08-14T01:55:21.234Z,43.10
2018-08-14T01:57:49.849Z,43.20
2018-08-14T02:02:46.457Z,43.40
2018-08-14T02:07:41.709Z,43.50
2018-08-14T02:10:19.126Z,43.30
2018-08-14T02:12:46.825Z,43.60
2018-08-14T02:15:15.950Z,43.10
2018-08-14T02:22:49.817Z,43.50
2018-08-14T02:25:17.474Z,43.60
2018-08-14T02:30:14.704Z,43.70
2018-08-14T02:37:38.611Z,43.70
2018-08-14T02:42:40.757Z,43.90
2018-08-14T02:45:09.613Z,43.70
2018-08-14T02:47:37.433Z,43.90
2018-08-14T02:50:05.530Z,44.00
2018-08-14T02:52:33.187Z,43.80
2018-08-14T02:55:00.837Z,43.90
2018-08-14T02:59:56.370Z,44.00
2018-08-14T03:02:24.071Z,44.10
2018-08-14T03:04:51.866Z,44.30
2018-08-14T03:07:19.473Z,44.10
2018-08-14T03:09:47.105Z,44.10
2018-08-14T03:14:55.687Z,44.20
2018-08-14T03:17:23.752Z,44.20
2018-08-14T03:19:51.715Z,44.50
2018-08-14T03:22:19.318Z,44.50
2018-08-14T03:24:46.922Z,44.40
2018-08-14T03:34:37.569Z,44.60
2018-08-14T03:39:32.879Z,44.80
2018-08-14T03:42:00.509Z,44.70
2018-08-14T03:46:56.652Z,44.70
2018-08-14T03:49:24.253Z,45.10
2018-08-14T03:51:51.857Z,44.60
2018-08-14T03:54:19.505Z,45.00
2018-08-14T03:56:47.182Z,44.90
2018-08-14T03:59:14.801Z,44.70
2018-08-14T04:01:42.436Z,44.60
2018-08-14T04:04:10.190Z,44.60
2018-08-14T04:06:37.976Z,44.70
2018-08-14T04:09:08.786Z,44.50
2018-08-14T04:16:31.770Z,44.50
2018-08-14T04:18:59.364Z,44.50
2018-08-14T04:23:54.606Z,44.70
2018-08-14T04:26:22.185Z,44.70
2018-08-14T04:28:49.829Z,44.70
2018-08-14T04:31:17.455Z,44.80
2018-08-14T04:36:12.714Z,44.90
2018-08-14T04:38:40.322Z,44.90
2018-08-14T04:46:03.246Z,45.20
2018-08-14T04:48:30.962Z,45.20
2018-08-14T04:50:58.714Z,45.40
2018-08-14T04:53:26.335Z,45.10
2018-08-14T04:55:53.926Z,45.10
2018-08-14T04:58:21.558Z,45.00
2018-08-14T05:00:49.226Z,44.90
2018-08-14T05:13:07.529Z,44.50
2018-08-14T05:15:35.138Z,44.40
2018-08-14T05:18:02.800Z,44.20
2018-08-14T05:20:30.441Z,44.10
2018-08-14T05:25:25.681Z,43.90
2018-08-14T05:27:53.292Z,43.80
2018-08-14T05:30:20.971Z,43.60
2018-08-14T05:35:16.250Z,43.60
2018-08-14T05:42:39.925Z,42.70
2018-08-14T05:45:10.439Z,43.00
2018-08-14T05:50:06.796Z,42.90
2018-08-14T05:52:34.430Z,42.70
2018-08-14T05:55:02.155Z,42.60
2018-08-14T05:57:29.736Z,42.30
2018-08-14T05:59:57.334Z,42.50
2018-08-14T06:02:24.950Z,42.60
2018-08-14T06:04:52.566Z,42.50
2018-08-14T06:09:47.829Z,42.30
2018-08-14T06:14:43.041Z,42.60
2018-08-14T06:17:10.651Z,42.30
2018-08-14T06:19:38.265Z,42.30
2018-08-14T06:22:05.915Z,42.30
2018-08-14T06:24:33.501Z,42.20
2018-08-14T06:27:01.140Z,42.10
2018-08-14T06:29:28.895Z,42.00
2018-08-14T06:34:24.272Z,42.00
2018-08-14T06:36:51.888Z,41.60
2018-08-14T06:39:19.546Z,41.40
2018-08-14T06:44:14.777Z,41.60
2018-08-14T06:46:42.407Z,41.60
2018-08-14T06:49:10.059Z,41.60
2018-08-14T06:54:05.470Z,41.80
2018-08-14T06:59:00.957Z,41.60
2018-08-14T07:01:28.582Z,41.70
2018-08-14T07:03:56.203Z,41.70
2018-08-14T07:06:23.815Z,41.60
2018-08-14T07:08:51.482Z,41.60
2018-08-14T07:13:46.839Z,41.40
2018-08-14T07:16:14.486Z,41.60
2018-08-14T07:21:09.804Z,41.60
2018-08-14T07:23:37.453Z,41.40
2018-08-14T07:28:32.794Z,41.30
2018-08-14T07:31:00.401Z,41.40
2018-08-14T07:33:28.539Z,41.20
2018-08-14T07:35:56.134Z,41.20
2018-08-14T07:38:23.791Z,41.10
2018-08-14T07:40:51.398Z,41.30
2018-08-14T07:45:46.934Z,41.40
2018-08-14T07:48:14.621Z,42.30
2018-08-14T07:50:42.233Z,41.00
2018-08-14T07:53:09.877Z,41.30
2018-08-14T07:55:37.453Z,41.10
2018-08-14T07:58:05.090Z,41.10
2018-08-14T08:00:32.687Z,41.10
2018-08-14T08:03:00.300Z,40.70
2018-08-14T08:07:55.633Z,41.20
2018-08-14T08:10:23.288Z,40.40
2018-08-14T08:12:50.898Z,40.50
2018-08-14T08:15:19.300Z,40.30
2018-08-14T08:17:47.438Z,40.40
2018-08-14T08:20:27.446Z,40.40
2018-08-14T08:25:23.222Z,40.20
2018-08-14T08:27:51.138Z,40.30
2018-08-14T08:30:18.781Z,40.10
2018-08-14T08:32:46.376Z,39.90
2018-08-14T08:37:42.168Z,39.30
2018-08-14T08:40:10.031Z,38.70
2018-08-14T08:42:37.645Z,38.70
2018-08-14T08:45:06.005Z,38.80
2018-08-14T08:50:01.293Z,37.70
2018-08-14T08:52:28.968Z,37.90
2018-08-14T08:54:56.854Z,37.80
2018-08-14T08:57:24.511Z,37.80
2018-08-14T08:59:52.118Z,37.30
2018-08-14T09:04:47.378Z,37.70
2018-08-14T09:07:14.989Z,37.20
2018-08-14T09:09:42.615Z,37.10
2018-08-14T09:14:37.903Z,37.00
2018-08-14T09:17:05.642Z,36.70
2018-08-14T09:22:01.211Z,36.50
2018-08-14T09:24:28.858Z,36.20
2018-08-14T09:26:56.550Z,35.60
2018-08-14T09:29:24.385Z,35.40
2018-08-14T09:31:52.021Z,35.00
2018-08-14T09:34:19.649Z,35.20
2018-08-14T09:36:47.325Z,35.20
2018-08-14T09:39:14.965Z,35.20
2018-08-14T09:41:42.703Z,35.40
2018-08-14T09:44:10.572Z,34.20
2018-08-14T09:49:06.246Z,33.60
2018-08-14T09:51:33.921Z,34.00
2018-08-14T09:54:01.944Z,33.50
2018-08-14T09:58:57.238Z,33.60
2018-08-14T10:01:29.615Z,33.50
2018-08-14T10:06:32.364Z,34.00
2018-08-14T10:11:27.748Z,33.70
2018-08-14T10:13:55.409Z,33.90
2018-08-14T10:18:50.699Z,33.20
2018-08-14T10:23:46.082Z,32.90
2018-08-14T10:26:13.713Z,32.90
2018-08-14T10:28:41.445Z,33.10
2018-08-14T10:33:36.807Z,32.90
2018-08-14T10:36:04.703Z,32.90
2018-08-14T10:38:32.389Z,33.00
2018-08-14T10:41:00.150Z,32.90
2018-08-14T10:43:27.843Z,32.90
2018-08-14T10:45:55.623Z,33.20
2018-08-14T10:48:23.269Z,32.80
2018-08-14T10:50:50.967Z,31.70
2018-08-14T10:53:18.597Z,31.90
2018-08-14T10:55:46.206Z,31.40
2018-08-14T10:58:13.892Z,31.20
2018-08-14T11:00:41.502Z,30.70
2018-08-14T11:03:09.233Z,30.60
2018-08-14T11:08:04.574Z,30.40
2018-08-14T11:10:37.987Z,30.70
2018-08-14T11:13:05.549Z,30.10
2018-08-14T11:15:33.191Z,29.50
2018-08-14T11:18:00.827Z,29.70
2018-08-14T11:20:28.437Z,30.00
2018-08-14T11:22:56.102Z,29.50
2018-08-14T11:25:23.785Z,29.60
2018-08-14T11:30:22.782Z,29.80
2018-08-14T11:32:50.791Z,29.60
2018-08-14T11:35:19.725Z,29.60
2018-08-14T11:37:47.418Z,29.10
2018-08-14T11:40:15.077Z,29.30
2018-08-14T11:45:21.066Z,28.60
2018-08-14T11:47:48.832Z,28.50
2018-08-14T11:50:17.419Z,28.10
2018-08-14T11:52:46.728Z,27.80
2018-08-14T11:55:16.118Z,27.70
2018-08-14T11:57:44.091Z,27.70
2018-08-14T12:00:13.869Z,28.00
2018-08-14T12:02:42.193Z,27.80
2018-08-14T12:05:09.828Z,27.90
2018-08-14T12:07:38.633Z,27.80
2018-08-14T12:12:35.357Z,27.10
2018-08-14T12:15:03.472Z,26.80
2018-08-14T12:19:58.805Z,26.50
2018-08-14T12:22:26.464Z,26.50
2018-08-14T12:24:54.256Z,26.80
2018-08-14T12:29:49.558Z,26.50
2018-08-14T12:32:17.185Z,26.70
2018-08-14T12:34:44.817Z,26.90
2018-08-14T12:37:12.425Z,26.80
2018-08-14T12:39:40.025Z,27.00
2018-08-14T12:42:07.695Z,27.10
2018-08-14T12:44:35.309Z,26.80
2018-08-14T12:47:03.031Z,26.70
2018-08-14T12:49:30.618Z,26.70
2018-08-14T12:51:58.253Z,26.50
2018-08-14T12:54:25.865Z,26.60
2018-08-14T12:56:54.556Z,26.60
2018-08-14T12:59:22.179Z,26.70
2018-08-14T13:01:49.885Z,26.40
2018-08-14T13:04:17.440Z,26.30
2018-08-14T13:06:45.192Z,26.30
2018-08-14T13:09:12.891Z,26.00
2018-08-14T13:11:40.880Z,25.80
2018-08-14T13:14:08.688Z,25.30
2018-08-14T13:16:36.514Z,25.60
2018-08-14T13:19:04.159Z,25.70
2018-08-14T13:21:31.791Z,25.40
2018-08-14T13:23:59.603Z,25.20
2018-08-14T13:28:55.935Z,24.60
2018-08-14T13:31:23.763Z,24.40
2018-08-14T13:33:51.570Z,24.40
2018-08-14T13:36:19.375Z,24.70
2018-08-14T13:38:47.323Z,24.40
2018-08-14T13:41:15.063Z,24.30
2018-08-14T13:43:42.675Z,24.00
2018-08-14T13:46:10.298Z,24.00
2018-08-14T13:48:37.959Z,23.80
2018-08-14T13:51:05.633Z,24.00
2018-08-14T13:53:33.303Z,23.80
2018-08-14T13:56:00.960Z,23.80
2018-08-14T13:58:28.599Z,23.50
2018-08-14T14:00:56.220Z,24.00
2018-08-14T14:03:23.821Z,23.50
2018-08-14T14:05:51.463Z,23.70
2018-08-14T14:08:19.106Z,23.90
2018-08-14T14:10:46.699Z,24.10
2018-08-14T14:13:14.311Z,24.20
2018-08-14T14:15:41.930Z,24.40
2018-08-14T14:18:09.534Z,24.50
2018-08-14T14:20:37.169Z,24.80
2018-08-14T14:23:04.809Z,24.90
2018-08-14T14:25:32.438Z,25.10
2018-08-14T14:28:00.108Z,25.30
2018-08-14T14:30:27.706Z,25.60
2018-08-14T14:32:55.309Z,25.70
2018-08-14T14:35:22.923Z,26.10
2018-08-14T14:37:50.594Z,26.50
2018-08-14T14:40:21.358Z,26.50
2018-08-14T14:42:51.096Z,26.60
2018-08-14T14:45:18.823Z,26.70
2018-08-14T14:47:46.626Z,26.70
2018-08-14T14:52:42.754Z,26.80
2018-08-14T14:55:13.643Z,26.90
2018-08-14T14:57:41.569Z,27.10
2018-08-14T15:00:15.443Z,27.20
2018-08-14T15:02:43.498Z,27.30
2018-08-14T15:05:12.531Z,27.30
2018-08-14T15:07:40.191Z,27.20
2018-08-14T15:10:08.346Z,27.30
2018-08-14T15:12:35.986Z,27.20
2018-08-14T15:15:04.126Z,27.10
2018-08-14T15:17:31.757Z,26.90
2018-08-14T15:19:59.393Z,26.80
2018-08-14T15:22:27.015Z,26.80
2018-08-14T15:24:54.641Z,26.80
2018-08-14T15:27:22.293Z,26.80
2018-08-14T15:29:49.914Z,27.00
2018-08-14T15:32:17.547Z,27.10
2018-08-14T15:34:45.130Z,27.20
2018-08-14T15:37:12.809Z,26.80
2018-08-14T15:39:40.438Z,27.50
2018-08-14T15:42:08.054Z,27.50
2018-08-14T15:47:03.322Z,27.60
2018-08-14T15:49:31.079Z,27.70
2018-08-14T15:51:58.633Z,28.00
2018-08-14T15:54:26.305Z,28.20
2018-08-14T15:56:53.917Z,28.90
2018-08-14T15:59:21.552Z,28.50
2018-08-14T16:01:49.189Z,28.80
2018-08-14T16:04:18.014Z,28.90
2018-08-14T16:06:45.714Z,28.90
2018-08-14T16:09:16.392Z,29.00
2018-08-14T16:11:44.883Z,29.50
2018-08-14T16:14:12.621Z,29.50
2018-08-14T16:16:40.385Z,29.50
2018-08-14T16:19:09.084Z,29.70
2018-08-14T16:21:36.847Z,29.70
2018-08-14T16:24:04.641Z,30.00
2018-08-14T16:26:32.292Z,30.00
2018-08-14T16:28:59.989Z,30.10
2018-08-14T16:31:27.667Z,30.20
2018-08-14T16:33:55.274Z,30.50
2018-08-14T16:36:22.938Z,30.70
2018-08-14T16:38:50.585Z,30.40
2018-08-14T16:41:18.236Z,30.70
2018-08-14T16:43:45.832Z,31.00
2018-08-14T16:46:13.498Z,31.60
2018-08-14T16:48:41.077Z,31.80
2018-08-14T16:51:08.705Z,31.40
2018-08-14T16:53:36.282Z,31.60
2018-08-14T16:56:03.925Z,32.30
2018-08-14T16:58:31.535Z,31.70
2018-08-14T17:00:59.202Z,31.70
2018-08-14T17:03:26.798Z,32.30
2018-08-14T17:05:55.367Z,31.80
2018-08-14T17:08:23.566Z,32.00
2018-08-14T17:10:51.574Z,32.00
2018-08-14T17:15:46.842Z,32.20
2018-08-14T17:18:14.873Z,32.90
2018-08-14T17:20:41.175Z,32.60
2018-08-14T17:25:36.595Z,32.50
2018-08-14T17:30:32.130Z,32.70
2018-08-14T17:32:59.772Z,33.00
2018-08-14T17:35:27.602Z,33.20
2018-08-14T17:37:55.590Z,33.30
2018-08-14T17:40:24.357Z,33.40
2018-08-14T17:42:52.018Z,33.40
2018-08-14T17:45:25.840Z,33.50
2018-08-14T17:50:22.924Z,33.60
2018-08-14T17:52:50.654Z,33.60
2018-08-14T17:55:19.058Z,33.80
2018-08-14T17:57:47.314Z,34.00
2018-08-14T18:00:19.837Z,34.00
2018-08-14T18:02:49.887Z,34.20
2018-08-14T18:05:17.887Z,34.30
2018-08-14T18:07:45.571Z,34.40
2018-08-14T18:10:17.326Z,34.60
2018-08-14T18:15:13.798Z,34.50
2018-08-14T18:17:41.410Z,34.30
2018-08-14T18:20:12.299Z,34.80
2018-08-14T18:22:39.897Z,35.00
2018-08-14T18:25:08.746Z,35.00
2018-08-14T18:27:36.398Z,35.10
2018-08-14T18:30:05.897Z,35.00
2018-08-14T18:32:33.503Z,35.00
2018-08-14T18:35:01.102Z,35.40
2018-08-14T18:37:28.693Z,35.40
2018-08-14T18:39:56.495Z,35.00
2018-08-14T18:44:51.784Z,35.00
2018-08-14T18:49:47.001Z,34.70
2018-08-14T18:52:14.615Z,34.80
2018-08-14T18:54:42.322Z,35.00
2018-08-14T18:57:10.112Z,35.00
2018-08-14T18:59:37.814Z,35.20
2018-08-14T19:02:05.440Z,35.40
2018-08-14T19:04:33.086Z,35.50
2018-08-14T19:07:00.718Z,35.50
2018-08-14T19:09:28.335Z,35.30
2018-08-14T19:11:56.033Z,35.20
2018-08-14T19:14:23.674Z,35.10
2018-08-14T19:16:51.266Z,35.40
2018-08-14T19:19:18.843Z,35.50
2018-08-14T19:21:46.474Z,35.50
2018-08-14T19:26:41.741Z,35.40
2018-08-14T19:29:09.526Z,35.70
2018-08-14T19:31:37.399Z,36.00
2018-08-14T19:34:05.016Z,35.90
2018-08-14T19:39:00.906Z,35.20
2018-08-14T19:41:28.530Z,34.90
2018-08-14T19:43:56.164Z,34.40
2018-08-14T19:48:52.489Z,33.00
2018-08-14T19:51:20.121Z,32.50
2018-08-14T19:53:47.742Z,33.20
2018-08-14T19:56:15.346Z,32.90
2018-08-14T19:58:42.990Z,33.10
2018-08-14T20:03:38.257Z,33.40
2018-08-14T20:06:05.910Z,33.20
2018-08-14T20:08:33.550Z,33.60
2018-08-14T20:11:01.170Z,33.80
2018-08-14T20:16:02.157Z,34.10
2018-08-14T20:18:29.768Z,34.20
2018-08-14T20:20:57.365Z,34.30
2018-08-14T20:23:25.027Z,34.70
2018-08-14T20:25:52.645Z,35.90
2018-08-14T20:28:20.283Z,34.80
2018-08-14T20:30:47.886Z,35.00
2018-08-14T20:35:43.125Z,35.40
2018-08-14T20:38:10.735Z,35.70
2018-08-14T20:43:06.531Z,36.20
2018-08-14T20:45:34.199Z,36.10
2018-08-14T20:48:01.824Z,36.40
2018-08-14T20:50:29.445Z,36.30
2018-08-14T20:52:57.734Z,36.40
2018-08-14T20:55:25.330Z,36.50
2018-08-14T21:00:30.893Z,36.50
2018-08-14T21:05:26.905Z,36.40
2018-08-14T21:07:54.547Z,36.60
2018-08-14T21:10:22.189Z,36.60
2018-08-14T21:12:49.806Z,36.60
2018-08-14T21:15:23.205Z,36.80
2018-08-14T21:17:52.671Z,36.70
2018-08-14T21:25:21.565Z,37.00
2018-08-14T21:27:49.182Z,36.90
2018-08-14T21:35:14.774Z,37.10
2018-08-14T21:37:42.398Z,37.10
2018-08-14T21:45:09.778Z,36.90
2018-08-14T21:50:05.506Z,36.90
2018-08-14T21:52:34.923Z,37.10
2018-08-14T21:55:02.668Z,37.00
2018-08-14T21:57:30.517Z,37.10
2018-08-14T21:59:58.398Z,37.20
2018-08-14T22:02:26.211Z,37.10
2018-08-14T22:04:55.862Z,37.10
2018-08-14T22:09:51.418Z,37.10
2018-08-14T22:12:19.026Z,37.10
2018-08-14T22:14:46.635Z,37.10
2018-08-14T22:17:14.229Z,37.10
2018-08-14T22:19:41.845Z,37.10
2018-08-14T22:22:09.479Z,37.10
2018-08-14T22:24:37.125Z,37.10
2018-08-14T22:27:04.724Z,36.90
2018-08-14T22:29:32.338Z,37.00
2018-08-14T22:34:27.534Z,36.90
2018-08-14T22:36:55.161Z,37.10
2018-08-14T22:39:22.758Z,36.90
2018-08-14T22:41:50.373Z,36.90
2018-08-14T22:44:17.973Z,37.00
2018-08-14T22:49:13.197Z,37.00
2018-08-14T22:51:40.805Z,37.10
2018-08-14T22:54:08.403Z,37.10
2018-08-14T22:56:36.971Z,36.90
2018-08-14T22:59:04.567Z,37.10
2018-08-14T23:03:59.861Z,36.80
2018-08-14T23:06:27.443Z,36.50
2018-08-14T23:08:55.076Z,36.40
2018-08-14T23:11:22.673Z,36.20
2018-08-14T23:13:50.247Z,36.70
2018-08-14T23:16:17.858Z,36.20
2018-08-14T23:18:45.441Z,36.30
2018-08-14T23:21:13.050Z,36.10
2018-08-14T23:23:40.653Z,36.20
2018-08-14T23:26:08.286Z,36.30
2018-08-14T23:28:36.146Z,36.30
2018-08-14T23:31:03.778Z,36.20
2018-08-14T23:33:31.548Z,36.10
2018-08-14T23:35:59.158Z,36.20
2018-08-14T23:38:26.755Z,36.20
2018-08-14T23:40:54.386Z,36.20
2018-08-14T23:43:22.014Z,36.30
2018-08-14T23:45:49.590Z,36.30
2018-08-14T23:48:17.188Z,36.30
2018-08-14T23:50:44.834Z,36.10
2018-08-14T23:53:12.430Z,36.20
2018-08-14T23:55:40.345Z,36.00
2018-08-14T23:58:08.122Z,36.00
